Aérodrome :
LOGIN :

S'inscrire | Disclaimer

   EN    FR    IT 

 










Légende :    VFR   VFR Marginal   IFR   IFR Intensif   IFR Très Intensif
Visi : 
Plafond : 
>= 8 km
>= 3000ft
5 à 8 km
1000 à 3000 ft
1500m à 5 km
500 à 1000 ft
800 à 1500m
200 à 500 ft
< 800m
< 200 ft
Symboles :   Orages  Brouillard  Fortes neiges  Fortes précipitations  Vent > 20 kt
SIGMETs :   Divers  Orages  Givrage  Turbulence  Onde Orograph.  Cendres Volcan.






- Altitude de l'aérodrome : 333 ft


LIPL - Ghedi Brescia (Mil)

DERNIER METAR :
  • 160855Z 23002KT 6000 SCT050 SCT080 06/04 Q1021 RMK BKN VIS MIN 6000 WIND THR31 /////KT WIND THR13 24003KT WHT

METARs EXPIRÉS :
  • 160807Z 27001KT 3500 BR SCT040 SCT080 05/03 Q1020 RMK BKN VIS MIN 3500 WIND THR31 /////KT WIND THR13 20001KT YLO
  • 160755Z 04002KT 2800 BR SCT040 SCT070 05/03 Q1020 RMK BKN VIS MIN 2800 WIND THR31 /////KT WIND THR13 01001KT YLO
  • 160655Z 33003KT 1800 BR SCT030 SCT060 05/03 Q1020 RMK BKN VIS MIN 1800 WIND THR31 /////KT WIND THR13 32003KT YLO

TAF TAF LIPL
Valide du 16 à 09h jusqu'au 16 à 18h UTC


160800Z 1609/1618 VRB03KT 3500 BR SCT025 BKN060
BECMG 1610/1612 7000 NSW
BECMG 1616/1618 2000 BR SCT010 SCT020 BKN050



MET'MAP, la Météo Aéronautique d'un coup d'oeil ! - Copyright ORBIFLY Décembre 2007 - Disclaimer

ORBIFLY MET'MAP TEAM :

Programmation & Développement : Alexandra Zaïnal
Sur une idée originale de : Baudouin d'Aumeries
Assistance à la programmation : Marc-Olivier Méhu
Soutien technique & logistique : Manuel Goepfert

Contact : metmap@orbifly.com




SOURCES & CREDITS :

   NOAA